KCVH

Hollister Municipal Airport

Hollister, California, USA
METAR KCVH 221655Z AUTO 00000KT 10SM CLR 21/10 A2995 RMK A01
Observed Flight Rules
Jun-22 @ 16:55 UTC (13 minutes ago) Visual Flight Rules
Visibility Clouds
10 miles
  • Clear skies
Temperatures Readings
Current 21°C / 70°F
Dewpoint 10°C / 50°F
Humidity 50%
Altimeter 29.95" Hg
Pressure 1014 hPa
Elevation 70
METAR KCVH 221655Z AUTO 00000KT 10SM CLR 21/10 A2995 RMK A01
Observed Flight Rules
Jun-22 @ 16:55 UTC
(13 minutes ago)
VFR
Clouds
  • Clear skies
Temperature Dewpoint
21°C / 70°F 10°C / 50°F
Humidity Altimeter Pressure
50% 29.95" Hg 1014 hPa